createdAt,value
2018-05-25T00:01:05.657Z,12.70
2018-05-25T00:03:33.212Z,12.70
2018-05-25T00:06:00.840Z,12.70
2018-05-25T00:08:28.387Z,12.70
2018-05-25T00:10:55.921Z,12.80
2018-05-25T00:13:23.500Z,12.80
2018-05-25T00:15:51.033Z,12.90
2018-05-25T00:18:18.608Z,12.80
2018-05-25T00:20:46.129Z,12.80
2018-05-25T00:23:14.443Z,12.90
2018-05-25T00:25:42.740Z,12.90
2018-05-25T00:28:10.304Z,12.90
2018-05-25T00:30:37.837Z,13.00
2018-05-25T00:33:05.383Z,13.00
2018-05-25T00:35:33.710Z,13.00
2018-05-25T00:38:01.256Z,13.00
2018-05-25T00:40:28.787Z,13.00
2018-05-25T00:42:56.332Z,13.00
2018-05-25T00:45:23.877Z,13.00
2018-05-25T00:47:51.423Z,13.00
2018-05-25T00:50:19.737Z,13.00
2018-05-25T00:52:47.279Z,13.00
2018-05-25T00:55:26.641Z,13.10
2018-05-25T00:57:54.204Z,13.10
2018-05-25T01:00:21.760Z,13.10
2018-05-25T01:02:49.300Z,13.10
2018-05-25T01:05:16.837Z,13.10
2018-05-25T01:07:44.395Z,13.10
2018-05-25T01:10:12.699Z,13.00
2018-05-25T01:12:40.265Z,13.00
2018-05-25T01:15:08.577Z,13.00
2018-05-25T01:17:36.902Z,13.00
2018-05-25T01:20:04.478Z,13.00
2018-05-25T01:22:32.847Z,13.00
2018-05-25T01:25:00.385Z,13.00
2018-05-25T01:27:27.943Z,13.00
2018-05-25T01:29:55.505Z,13.00
2018-05-25T01:32:23.852Z,12.90
2018-05-25T01:34:51.838Z,12.90
2018-05-25T01:37:19.392Z,12.90
2018-05-25T01:39:47.708Z,12.90
2018-05-25T01:42:15.261Z,12.90
2018-05-25T01:44:42.792Z,12.90
2018-05-25T01:47:10.342Z,12.90
2018-05-25T01:49:38.668Z,12.90
2018-05-25T01:52:06.249Z,12.80
2018-05-25T01:54:33.808Z,12.80
2018-05-25T01:57:01.357Z,12.80
2018-05-25T01:59:28.899Z,12.80
2018-05-25T02:01:56.440Z,12.70
2018-05-25T02:04:24.020Z,12.70
2018-05-25T02:06:51.858Z,12.70
2018-05-25T02:09:20.169Z,12.70
2018-05-25T02:11:47.734Z,12.70
2018-05-25T02:14:15.256Z,12.70
2018-05-25T02:16:42.806Z,12.70
2018-05-25T02:19:11.117Z,12.60
2018-05-25T02:21:38.651Z,12.60
2018-05-25T02:24:06.213Z,12.70
2018-05-25T02:26:33.790Z,12.60
2018-05-25T02:29:01.947Z,12.60
2018-05-25T02:31:30.252Z,12.60
2018-05-25T02:33:58.579Z,12.50
2018-05-25T02:36:26.875Z,12.50
2018-05-25T02:38:54.420Z,12.50
2018-05-25T02:41:21.972Z,12.60
2018-05-25T02:43:49.516Z,12.60
2018-05-25T02:46:17.813Z,12.60
2018-05-25T02:48:46.128Z,12.70
2018-05-25T02:51:14.429Z,12.70
2018-05-25T02:53:42.739Z,12.70
2018-05-25T02:56:10.312Z,12.70
2018-05-25T02:58:38.632Z,12.70
2018-05-25T03:01:06.179Z,12.70
2018-05-25T03:03:33.725Z,12.60
2018-05-25T03:06:01.262Z,12.60
2018-05-25T03:08:29.568Z,12.60
2018-05-25T03:10:57.099Z,12.60
2018-05-25T03:13:24.652Z,12.60
2018-05-25T03:15:52.186Z,12.60
2018-05-25T03:18:19.725Z,12.60
2018-05-25T03:20:48.029Z,12.60
2018-05-25T03:23:15.577Z,12.60
2018-05-25T03:25:43.109Z,12.60
2018-05-25T03:28:10.649Z,12.60
2018-05-25T03:30:38.199Z,12.60
2018-05-25T03:33:05.769Z,12.60
2018-05-25T03:35:33.307Z,12.50
2018-05-25T03:38:01.624Z,12.60
2018-05-25T03:40:29.167Z,12.50
2018-05-25T03:42:56.707Z,12.60
2018-05-25T03:45:25.942Z,12.50
2018-05-25T03:47:53.637Z,12.50
2018-05-25T03:50:21.184Z,12.50
2018-05-25T03:52:48.744Z,12.50
2018-05-25T03:55:16.549Z,12.50
2018-05-25T03:57:44.909Z,12.60
2018-05-25T04:00:24.429Z,12.50
2018-05-25T04:02:52.012Z,12.60
2018-05-25T04:05:20.431Z,12.60
2018-05-25T04:07:47.981Z,12.60
2018-05-25T04:10:22.674Z,12.60
2018-05-25T04:12:50.305Z,12.70
2018-05-25T04:15:17.858Z,12.70
2018-05-25T04:17:45.445Z,12.70
2018-05-25T04:20:13.655Z,12.80
2018-05-25T04:23:20.355Z,12.80
2018-05-25T04:25:49.604Z,12.90
2018-05-25T04:28:17.161Z,12.80
2018-05-25T04:30:44.767Z,12.90
2018-05-25T04:33:12.308Z,12.90
2018-05-25T04:35:40.372Z,13.00
2018-05-25T04:38:07.893Z,13.00
2018-05-25T04:40:35.441Z,13.10
2018-05-25T04:43:06.247Z,13.10
2018-05-25T04:45:34.825Z,13.20
2018-05-25T04:48:02.392Z,13.20
2018-05-25T04:50:29.947Z,13.30
2018-05-25T04:52:57.489Z,13.30
2018-05-25T04:55:25.049Z,13.30
2018-05-25T04:57:52.687Z,13.40
2018-05-25T05:00:20.256Z,13.40
2018-05-25T05:02:48.613Z,13.50
2018-05-25T05:05:16.182Z,13.50
2018-05-25T05:07:43.744Z,13.50
2018-05-25T05:10:11.352Z,13.60
2018-05-25T05:12:38.933Z,13.60
2018-05-25T05:15:06.532Z,13.60
2018-05-25T05:17:34.898Z,13.80
2018-05-25T05:20:02.453Z,13.70
2018-05-25T05:22:30.044Z,13.90
2018-05-25T05:24:57.636Z,13.90
2018-05-25T05:27:26.413Z,14.00
2018-05-25T05:29:53.990Z,13.90
2018-05-25T05:32:21.596Z,13.90
2018-05-25T05:34:49.161Z,13.90
2018-05-25T05:37:17.057Z,14.00
2018-05-25T05:39:44.640Z,14.00
2018-05-25T05:42:13.379Z,14.00
2018-05-25T05:44:40.989Z,14.10
2018-05-25T05:47:09.472Z,14.10
2018-05-25T05:49:37.049Z,14.10
2018-05-25T05:52:04.612Z,14.20
2018-05-25T05:54:32.927Z,14.30
2018-05-25T05:57:01.190Z,14.30
2018-05-25T05:59:28.753Z,14.40
2018-05-25T06:01:58.356Z,14.40
2018-05-25T06:04:25.971Z,14.40
2018-05-25T06:06:54.957Z,14.40
2018-05-25T06:09:22.546Z,14.50
2018-05-25T06:11:51.856Z,14.50
2018-05-25T06:14:19.440Z,14.50
2018-05-25T06:16:46.991Z,14.60
2018-05-25T06:19:14.624Z,14.50
2018-05-25T06:21:42.204Z,14.60
2018-05-25T06:24:09.776Z,14.70
2018-05-25T06:26:37.343Z,14.80
2018-05-25T06:29:04.925Z,14.80
2018-05-25T06:31:33.403Z,14.80
2018-05-25T06:34:01.014Z,14.80
2018-05-25T06:36:29.847Z,14.90
2018-05-25T06:38:57.482Z,14.90
2018-05-25T06:41:25.057Z,15.00
2018-05-25T06:43:52.607Z,15.00
2018-05-25T06:46:22.153Z,15.00
2018-05-25T06:48:49.729Z,15.00
2018-05-25T06:51:19.019Z,15.10
2018-05-25T06:53:46.570Z,15.00
2018-05-25T06:56:14.136Z,15.10
2018-05-25T06:58:41.688Z,15.20
2018-05-25T07:01:09.276Z,15.20
2018-05-25T07:03:37.590Z,15.30
2018-05-25T07:06:05.136Z,15.30
2018-05-25T07:08:32.669Z,15.30
2018-05-25T07:11:02.167Z,15.50
2018-05-25T07:13:29.739Z,15.50
2018-05-25T07:15:57.457Z,15.60
2018-05-25T07:18:24.988Z,15.60
2018-05-25T07:20:52.520Z,15.70
2018-05-25T07:23:20.165Z,15.80
2018-05-25T07:25:49.159Z,15.90
2018-05-25T07:28:17.573Z,16.40
2018-05-25T07:30:45.151Z,16.40
2018-05-25T07:33:12.729Z,16.50
2018-05-25T07:35:42.098Z,16.60
2018-05-25T07:38:09.731Z,16.60
2018-05-25T07:40:38.365Z,16.70
2018-05-25T07:43:05.967Z,16.60
2018-05-25T07:45:34.329Z,16.90
2018-05-25T07:48:01.909Z,16.80
2018-05-25T07:50:29.507Z,17.00
2018-05-25T07:52:57.117Z,17.10
2018-05-25T07:55:25.469Z,17.30
2018-05-25T07:57:53.072Z,17.30
2018-05-25T08:00:21.497Z,17.40
2018-05-25T08:02:49.136Z,17.40
2018-05-25T08:05:17.999Z,17.40
2018-05-25T08:07:45.546Z,17.80
2018-05-25T08:10:13.175Z,17.90
2018-05-25T08:12:46.382Z,18.00
2018-05-25T08:15:13.968Z,18.40
2018-05-25T08:17:41.518Z,18.70
2018-05-25T08:20:09.823Z,18.70
2018-05-25T08:22:39.127Z,18.70
2018-05-25T08:25:06.694Z,18.80
2018-05-25T08:27:34.240Z,18.70
2018-05-25T08:30:01.794Z,18.50
2018-05-25T08:32:29.369Z,18.60
2018-05-25T08:34:56.954Z,18.70
2018-05-25T08:37:25.412Z,19.10
2018-05-25T08:39:52.968Z,19.30
2018-05-25T08:42:20.533Z,19.20
2018-05-25T08:44:48.074Z,19.20
2018-05-25T08:47:16.641Z,19.00
2018-05-25T08:49:44.219Z,18.80
2018-05-25T08:52:13.014Z,19.20
2018-05-25T08:54:40.595Z,19.50
2018-05-25T08:57:08.349Z,19.80
2018-05-25T08:59:35.907Z,19.90
2018-05-25T09:02:03.809Z,19.90
2018-05-25T09:04:45.808Z,19.20
2018-05-25T09:07:14.244Z,19.20
2018-05-25T09:09:41.837Z,19.20
2018-05-25T09:12:09.379Z,19.50
2018-05-25T09:14:36.924Z,19.70
2018-05-25T09:17:06.125Z,19.90
2018-05-25T09:19:33.684Z,20.20
2018-05-25T09:22:01.217Z,20.90
2018-05-25T09:24:28.764Z,21.10
2018-05-25T09:26:56.541Z,21.50
2018-05-25T09:29:24.115Z,21.70
2018-05-25T09:31:53.085Z,21.60
2018-05-25T09:34:20.627Z,21.80
2018-05-25T09:36:48.156Z,22.10
2018-05-25T09:39:16.499Z,22.70
2018-05-25T09:41:44.937Z,22.70
2018-05-25T09:44:13.258Z,23.20
2018-05-25T09:46:42.113Z,23.20
2018-05-25T09:49:09.662Z,23.50
2018-05-25T09:51:41.454Z,22.80
2018-05-25T09:54:09.023Z,22.80
2018-05-25T09:56:36.693Z,23.00
2018-05-25T09:59:04.263Z,23.60
2018-05-25T10:01:33.524Z,23.70
2018-05-25T10:04:01.078Z,24.10
2018-05-25T10:06:28.758Z,24.30
2018-05-25T10:08:56.328Z,23.80
2018-05-25T10:11:24.993Z,23.70
2018-05-25T10:13:52.553Z,23.90
2018-05-25T10:16:20.115Z,23.80
2018-05-25T10:18:47.677Z,24.10
2018-05-25T10:21:15.229Z,24.20
2018-05-25T10:23:42.792Z,24.10
2018-05-25T10:26:10.374Z,23.70
2018-05-25T10:28:37.923Z,23.50
2018-05-25T10:31:05.502Z,23.50
2018-05-25T10:33:33.028Z,23.10
2018-05-25T10:36:00.576Z,22.70
2018-05-25T10:38:28.136Z,22.70
2018-05-25T10:40:55.825Z,22.80
2018-05-25T10:43:23.382Z,23.10
2018-05-25T10:45:52.472Z,23.00
2018-05-25T10:48:20.020Z,23.10
2018-05-25T10:50:47.662Z,22.90
2018-05-25T10:53:15.257Z,22.60
2018-05-25T10:55:42.822Z,22.30
2018-05-25T10:58:10.400Z,23.00
2018-05-25T11:00:38.683Z,23.20
2018-05-25T11:03:07.014Z,23.60
2018-05-25T11:05:36.074Z,23.60
2018-05-25T11:08:03.603Z,23.50
2018-05-25T11:10:31.164Z,23.60
2018-05-25T11:12:58.730Z,23.70
2018-05-25T11:15:26.288Z,23.70
2018-05-25T11:17:54.649Z,23.90
2018-05-25T11:20:23.556Z,23.90
2018-05-25T11:22:54.706Z,24.00
2018-05-25T11:25:24.152Z,23.90
2018-05-25T11:27:51.736Z,23.80
2018-05-25T11:30:19.299Z,23.60
2018-05-25T11:32:46.858Z,23.70
2018-05-25T11:35:14.537Z,23.70
2018-05-25T11:37:42.868Z,23.80
2018-05-25T11:40:10.422Z,23.80
2018-05-25T11:42:39.415Z,23.50
2018-05-25T11:45:06.974Z,23.40
2018-05-25T11:47:35.042Z,23.30
2018-05-25T11:50:02.616Z,23.30
2018-05-25T11:52:31.469Z,23.20
2018-05-25T11:54:59.008Z,23.20
2018-05-25T11:57:27.340Z,23.50
2018-05-25T11:59:54.888Z,23.50
2018-05-25T12:02:24.026Z,23.50
2018-05-25T12:04:51.574Z,23.50
2018-05-25T12:07:19.129Z,23.40
2018-05-25T12:09:46.675Z,23.30
2018-05-25T12:12:14.955Z,23.40
2018-05-25T12:14:42.566Z,23.40
2018-05-25T12:17:10.852Z,23.60
2018-05-25T12:19:38.388Z,23.60
2018-05-25T12:22:07.640Z,23.80
2018-05-25T12:24:35.200Z,23.80
2018-05-25T12:27:02.758Z,24.00
2018-05-25T12:29:30.333Z,24.00
2018-05-25T12:31:57.873Z,24.10
2018-05-25T12:34:25.445Z,24.10
2018-05-25T12:36:52.993Z,24.10
2018-05-25T12:39:20.551Z,24.10
2018-05-25T12:41:48.134Z,24.20
2018-05-25T12:44:15.696Z,24.30
2018-05-25T12:46:43.238Z,24.40
2018-05-25T12:49:10.815Z,24.40
2018-05-25T12:51:38.364Z,24.40
2018-05-25T12:54:05.957Z,24.50
2018-05-25T12:56:35.982Z,24.70
2018-05-25T12:59:03.530Z,24.70
2018-05-25T13:01:31.860Z,24.70
2018-05-25T13:03:59.496Z,24.70
2018-05-25T13:06:28.849Z,24.80
2018-05-25T13:08:56.412Z,24.80
2018-05-25T13:11:25.967Z,24.80
2018-05-25T13:13:53.528Z,24.80
2018-05-25T13:16:22.233Z,24.80
2018-05-25T13:18:49.774Z,24.90
2018-05-25T13:21:17.336Z,24.80
2018-05-25T13:23:44.918Z,24.80
2018-05-25T13:26:12.489Z,25.10
2018-05-25T13:28:40.051Z,25.30
2018-05-25T13:31:09.127Z,25.40
2018-05-25T13:33:36.668Z,25.40
2018-05-25T13:36:04.211Z,25.30
2018-05-25T13:38:31.749Z,25.20
2018-05-25T13:41:00.767Z,25.00
2018-05-25T13:43:28.325Z,25.10
2018-05-25T13:45:55.880Z,25.10
2018-05-25T13:48:24.198Z,25.10
2018-05-25T13:50:53.313Z,25.10
2018-05-25T13:53:21.632Z,25.10
2018-05-25T13:55:49.192Z,25.10
2018-05-25T13:58:16.769Z,25.10
2018-05-25T14:00:45.432Z,25.20
2018-05-25T14:03:12.999Z,25.20
2018-05-25T14:05:40.568Z,25.20
2018-05-25T14:08:08.163Z,25.20
2018-05-25T14:10:37.593Z,25.10
2018-05-25T14:13:05.900Z,25.10
2018-05-25T14:15:33.671Z,25.10
2018-05-25T14:18:01.225Z,25.00
2018-05-25T14:20:30.133Z,25.10
2018-05-25T14:22:57.683Z,25.10
2018-05-25T14:25:25.225Z,25.20
2018-05-25T14:27:52.788Z,25.20
2018-05-25T14:30:22.168Z,25.10
2018-05-25T14:32:49.789Z,25.10
2018-05-25T14:35:17.433Z,25.10
2018-05-25T14:37:44.989Z,25.10
2018-05-25T14:40:12.620Z,25.10
2018-05-25T14:42:40.189Z,25.00
2018-05-25T14:45:07.768Z,25.00
2018-05-25T14:47:36.566Z,24.90
2018-05-25T14:50:04.193Z,24.80
2018-05-25T14:52:32.963Z,25.00
2018-05-25T14:55:01.272Z,25.10
2018-05-25T14:57:28.925Z,25.10
2018-05-25T14:59:56.494Z,25.20
2018-05-25T15:02:25.347Z,25.30
2018-05-25T15:04:52.917Z,25.30
2018-05-25T15:07:21.638Z,25.40
2018-05-25T15:09:49.217Z,25.50
2018-05-25T15:12:18.174Z,25.50
2018-05-25T15:14:45.797Z,25.40
2018-05-25T15:17:16.076Z,25.30
2018-05-25T15:19:43.645Z,25.40
2018-05-25T15:22:11.187Z,25.30
2018-05-25T15:24:38.753Z,25.20
2018-05-25T15:27:07.498Z,25.30
2018-05-25T15:29:35.498Z,25.40
2018-05-25T15:32:11.580Z,25.40
2018-05-25T15:34:40.436Z,25.30
2018-05-25T15:37:08.277Z,25.30
2018-05-25T15:39:44.714Z,25.40
2018-05-25T15:42:15.154Z,25.50
2018-05-25T15:47:23.588Z,25.30
2018-05-25T15:49:53.661Z,25.40
2018-05-25T15:52:21.333Z,25.30
2018-05-25T15:54:49.115Z,25.30
2018-05-25T15:57:18.030Z,25.30
2018-05-25T15:59:46.231Z,25.30
2018-05-25T16:02:13.970Z,25.30
2018-05-25T16:04:42.429Z,25.20
2018-05-25T16:07:15.145Z,24.90
2018-05-25T16:09:43.209Z,25.10
2018-05-25T16:12:11.979Z,25.10
2018-05-25T16:14:41.271Z,25.10
2018-05-25T16:17:09.626Z,25.10
2018-05-25T16:19:37.552Z,25.10
2018-05-25T16:22:09.000Z,25.30
2018-05-25T16:24:43.348Z,25.50
2018-05-25T16:27:18.177Z,25.60
2018-05-25T16:29:52.313Z,25.60
2018-05-25T16:32:21.208Z,25.80
2018-05-25T16:34:49.620Z,26.30
2018-05-25T16:37:19.061Z,26.30
2018-05-25T16:39:46.647Z,26.30
2018-05-25T16:42:16.776Z,26.10
2018-05-25T16:44:44.378Z,26.10
2018-05-25T16:47:11.960Z,26.10
2018-05-25T16:49:39.525Z,26.00
2018-05-25T16:52:07.133Z,26.20
2018-05-25T16:54:34.661Z,26.10
2018-05-25T16:57:02.215Z,26.20
2018-05-25T16:59:31.945Z,26.10
2018-05-25T17:01:59.850Z,25.80
2018-05-25T17:04:27.473Z,25.60
2018-05-25T17:06:56.235Z,25.50
2018-05-25T17:09:24.664Z,25.80
2018-05-25T17:11:58.561Z,25.80
2018-05-25T17:14:27.672Z,26.00
2018-05-25T17:16:59.825Z,26.00
2018-05-25T17:19:27.473Z,26.10
2018-05-25T17:21:55.443Z,26.20
2018-05-25T17:24:23.238Z,26.70
2018-05-25T17:26:53.787Z,26.90
2018-05-25T17:29:22.019Z,26.60
2018-05-25T17:31:50.406Z,26.00
2018-05-25T17:34:17.920Z,25.70
2018-05-25T17:36:46.240Z,25.40
2018-05-25T17:39:14.921Z,25.10
2018-05-25T17:41:46.437Z,25.00
2018-05-25T17:44:15.760Z,24.90
2018-05-25T17:46:44.327Z,24.90
2018-05-25T17:49:11.909Z,24.90
2018-05-25T17:51:39.812Z,24.90
2018-05-25T17:54:07.347Z,24.80
2018-05-25T17:56:35.028Z,24.80
2018-05-25T17:59:02.590Z,24.70
2018-05-25T18:01:31.659Z,24.70
2018-05-25T18:03:59.224Z,24.70
2018-05-25T18:06:26.949Z,24.70
2018-05-25T18:08:55.351Z,24.40
2018-05-25T18:11:24.317Z,24.30
2018-05-25T18:13:51.976Z,24.20
2018-05-25T18:16:19.637Z,24.00
2018-05-25T18:18:47.237Z,23.90
2018-05-25T18:21:14.835Z,23.80
2018-05-25T18:23:43.473Z,23.80
2018-05-25T18:34:56.121Z,23.50
2018-05-25T18:37:27.280Z,23.30
2018-05-25T18:39:54.881Z,23.20
2018-05-25T18:42:22.445Z,23.00
2018-05-25T18:44:50.001Z,23.00
2018-05-25T18:47:19.166Z,22.90
2018-05-25T18:49:47.689Z,22.90
2018-05-25T18:52:17.441Z,22.80
2018-05-25T18:54:45.001Z,22.80
2018-05-25T18:57:13.825Z,22.70
2018-05-25T18:59:41.507Z,22.60
2018-05-25T19:02:10.305Z,22.50
2018-05-25T19:04:38.677Z,22.10
2018-05-25T19:07:06.640Z,22.10
2018-05-25T19:09:34.212Z,22.00
2018-05-25T19:12:02.991Z,21.80
2018-05-25T19:14:31.325Z,21.60
2018-05-25T19:16:58.908Z,21.60
2018-05-25T19:19:26.554Z,21.40
2018-05-25T19:21:54.852Z,21.20
2018-05-25T19:24:23.482Z,20.80
2018-05-25T19:26:55.101Z,20.80
2018-05-25T19:29:22.730Z,20.60
2018-05-25T19:31:51.759Z,20.50
2018-05-25T19:34:19.341Z,20.30
2018-05-25T19:36:48.022Z,20.20
2018-05-25T19:39:15.602Z,20.10
2018-05-25T19:41:54.046Z,19.90
2018-05-25T19:44:21.684Z,19.80
2018-05-25T19:46:49.331Z,19.70
2018-05-25T19:49:16.941Z,19.50
2018-05-25T19:51:46.252Z,19.30
2018-05-25T19:54:13.847Z,19.20
2018-05-25T19:56:41.534Z,19.10
2018-05-25T19:59:09.128Z,19.10
2018-05-25T20:01:37.637Z,18.90
2018-05-25T20:04:05.275Z,18.80
2018-05-25T20:06:34.233Z,18.80
2018-05-25T20:09:01.799Z,18.70
2018-05-25T20:11:30.835Z,18.50
2018-05-25T20:13:58.384Z,18.50
2018-05-25T20:16:26.882Z,18.50
2018-05-25T20:18:54.574Z,18.40
2018-05-25T20:21:23.814Z,18.40
2018-05-25T20:23:51.423Z,18.30
2018-05-25T20:26:20.173Z,18.20
2018-05-25T20:28:48.549Z,18.10
2018-05-25T20:31:16.945Z,18.00
2018-05-25T20:33:44.680Z,18.00
2018-05-25T20:36:12.370Z,18.00
2018-05-25T20:38:40.013Z,17.90
2018-05-25T20:41:09.650Z,17.80
2018-05-25T20:43:37.274Z,17.70
2018-05-25T20:46:05.009Z,17.70
2018-05-25T20:48:45.360Z,17.60
2018-05-25T20:51:14.578Z,17.50
2018-05-25T20:53:43.102Z,17.40
2018-05-25T20:56:11.888Z,17.40
2018-05-25T20:58:39.505Z,17.40
2018-05-25T21:01:08.374Z,17.30
2018-05-25T21:03:36.115Z,17.30
2018-05-25T21:06:27.761Z,17.30
2018-05-25T21:08:55.365Z,17.20
2018-05-25T21:11:31.849Z,17.10
2018-05-25T21:13:59.476Z,17.10
2018-05-25T21:16:33.839Z,17.10
2018-05-25T21:19:01.461Z,17.10
2018-05-25T21:21:30.161Z,17.00
2018-05-25T21:24:02.359Z,17.00
2018-05-25T21:26:36.838Z,16.90
2018-05-25T21:29:05.424Z,16.90
2018-05-25T21:31:34.553Z,16.90
2018-05-25T21:34:02.104Z,16.80
2018-05-25T21:36:31.436Z,16.80
2018-05-25T21:38:59.084Z,16.70
2018-05-25T21:41:28.124Z,16.70
2018-05-25T21:43:55.757Z,16.60
2018-05-25T21:46:24.281Z,16.60
2018-05-25T21:48:52.746Z,16.40
2018-05-25T21:51:23.594Z,16.40
2018-05-25T21:53:51.976Z,16.30
2018-05-25T21:56:20.870Z,16.30
2018-05-25T21:58:49.300Z,16.20
2018-05-25T22:01:16.902Z,16.20
2018-05-25T22:03:45.290Z,16.10
2018-05-25T22:06:14.582Z,16.10
2018-05-25T22:08:42.968Z,16.10
2018-05-25T22:11:10.547Z,16.00
2018-05-25T22:13:38.122Z,16.00
2018-05-25T22:16:07.506Z,16.00
2018-05-25T22:18:35.137Z,15.90
2018-05-25T22:21:04.058Z,15.80
2018-05-25T22:23:32.484Z,15.80
2018-05-25T22:26:01.621Z,15.70
2018-05-25T22:28:29.212Z,15.70
2018-05-25T22:30:57.904Z,15.70
2018-05-25T22:33:25.564Z,15.60
2018-05-25T22:35:54.333Z,15.60
2018-05-25T22:38:22.913Z,15.50
2018-05-25T22:40:51.749Z,15.50
2018-05-25T22:43:31.168Z,15.40
2018-05-25T22:49:04.528Z,15.30
2018-05-25T22:51:44.099Z,15.30
2018-05-25T22:54:17.468Z,15.30
2018-05-25T22:56:45.128Z,15.30
2018-05-25T22:59:13.571Z,15.20
2018-05-25T23:01:41.173Z,15.20
2018-05-25T23:04:08.756Z,15.20
2018-05-25T23:06:47.065Z,15.10
2018-05-25T23:12:08.983Z,15.10
2018-05-25T23:14:37.372Z,15.00
2018-05-25T23:17:05.008Z,15.00
2018-05-25T23:19:33.442Z,14.90
2018-05-25T23:22:01.013Z,14.90
2018-05-25T23:24:28.681Z,14.90
2018-05-25T23:26:57.249Z,14.90
2018-05-25T23:29:24.816Z,14.80
2018-05-25T23:31:52.472Z,14.80
2018-05-25T23:34:20.117Z,14.70
2018-05-25T23:36:49.549Z,14.70
2018-05-25T23:39:17.202Z,14.70
2018-05-25T23:41:44.779Z,14.70
2018-05-25T23:44:12.401Z,14.70
2018-05-25T23:46:41.553Z,14.70
2018-05-25T23:49:09.929Z,14.60
2018-05-25T23:51:38.374Z,14.60
2018-05-25T23:54:05.985Z,14.60
2018-05-25T23:56:35.835Z,14.60
2018-05-25T23:59:03.442Z,14.50
